createdAt,value
2023-02-07T00:02:03.952Z,-4.30
2023-02-07T00:07:06.967Z,-4.20
2023-02-07T00:09:37.676Z,-4.20
2023-02-07T00:12:07.998Z,-4.20
2023-02-07T00:17:08.618Z,-4.30
2023-02-07T00:19:38.714Z,-4.60
2023-02-07T00:22:11.312Z,-4.20
2023-02-07T00:24:41.282Z,-4.30
2023-02-07T00:27:11.505Z,-4.20
2023-02-07T00:37:15.084Z,-4.50
2023-02-07T00:39:45.086Z,-4.60
2023-02-07T00:42:15.090Z,-4.60
2023-02-07T00:44:45.078Z,-4.60
2023-02-07T00:49:45.256Z,-4.60
2023-02-07T00:52:17.795Z,-4.70
2023-02-07T01:02:20.711Z,-4.80
2023-02-07T01:04:50.766Z,-4.90
2023-02-07T01:07:23.347Z,-4.80
2023-02-07T01:14:54.285Z,-4.90
2023-02-07T01:17:24.697Z,-5.00
2023-02-07T01:19:59.646Z,-4.90
2023-02-07T01:22:32.195Z,-5.00
2023-02-07T01:30:02.991Z,-5.00
2023-02-07T01:32:35.314Z,-5.10
2023-02-07T01:35:06.019Z,-5.00
2023-02-07T01:37:38.651Z,-4.20
2023-02-07T01:40:11.238Z,-5.10
2023-02-07T01:42:41.338Z,-5.20
2023-02-07T01:45:25.207Z,-5.40
2023-02-07T01:47:57.076Z,-5.30
2023-02-07T01:50:29.315Z,-5.40
2023-02-07T01:53:05.025Z,-5.40
2023-02-07T01:55:39.993Z,-5.40
2023-02-07T01:58:10.865Z,-5.50
2023-02-07T02:00:41.159Z,-5.40
2023-02-07T02:03:11.263Z,-5.60
2023-02-07T02:05:42.711Z,-5.60
2023-02-07T02:08:15.739Z,-5.60
2023-02-07T02:11:05.450Z,-5.60
2023-02-07T02:13:43.538Z,-5.70
2023-02-07T02:16:23.120Z,-5.60
2023-02-07T02:19:29.271Z,-5.70
2023-02-07T02:22:27.339Z,-5.00
2023-02-07T02:25:30.207Z,-5.80
2023-02-07T02:28:27.089Z,-5.90
2023-02-07T02:34:50.798Z,-6.00
2023-02-07T02:37:29.741Z,-6.00
2023-02-07T02:40:07.341Z,-6.10
2023-02-07T02:42:42.790Z,-6.20
2023-02-07T02:45:16.823Z,-6.20
2023-02-07T02:47:51.299Z,-6.20
2023-02-07T02:50:25.995Z,-6.20
2023-02-07T02:55:52.509Z,-6.20
2023-02-07T02:58:32.743Z,-6.20
2023-02-07T03:01:11.885Z,-6.30
2023-02-07T03:04:07.329Z,-6.30
2023-02-07T03:06:52.575Z,-6.30
2023-02-07T03:09:33.155Z,-6.30
2023-02-07T03:12:16.409Z,-6.30
2023-02-07T03:14:55.873Z,-6.50
2023-02-07T03:17:30.834Z,-6.30
2023-02-07T03:20:08.499Z,-6.30
2023-02-07T03:22:42.586Z,-6.20
2023-02-07T03:25:14.787Z,-6.20
2023-02-07T03:27:45.554Z,-6.00
2023-02-07T03:30:19.380Z,-6.20
2023-02-07T03:32:58.112Z,-6.00
2023-02-07T03:35:30.295Z,-6.10
2023-02-07T03:38:04.846Z,-6.20
2023-02-07T03:40:41.091Z,-6.10
2023-02-07T03:43:14.134Z,-6.30
2023-02-07T03:45:44.954Z,-6.50
2023-02-07T03:48:15.383Z,-6.40
2023-02-07T03:50:47.676Z,-6.50
2023-02-07T03:53:20.216Z,-6.60
2023-02-07T03:55:50.431Z,-6.50
2023-02-07T03:58:20.485Z,-6.50
2023-02-07T04:03:23.624Z,-6.60
2023-02-07T04:08:26.782Z,-6.60
2023-02-07T04:11:01.168Z,-6.70
2023-02-07T04:13:31.395Z,-6.70
2023-02-07T04:18:31.913Z,-6.80
2023-02-07T04:21:05.480Z,-6.80
2023-02-07T04:23:38.662Z,-6.90
2023-02-07T04:26:08.723Z,-6.90
2023-02-07T04:28:38.700Z,-6.90
2023-02-07T04:31:08.952Z,-6.90
2023-02-07T04:36:10.298Z,-6.90
2023-02-07T04:38:43.948Z,-7.00
2023-02-07T04:41:14.110Z,-7.00
2023-02-07T04:51:15.814Z,-7.10
2023-02-07T04:53:48.921Z,-7.10
2023-02-07T04:56:18.900Z,-7.20
2023-02-07T05:01:19.526Z,-7.20
2023-02-07T05:03:49.548Z,-7.20
2023-02-07T05:06:19.782Z,-7.40
2023-02-07T05:08:52.355Z,-7.10
2023-02-07T05:13:53.351Z,-7.10
2023-02-07T05:16:23.639Z,-7.10
2023-02-07T05:18:54.093Z,-7.40
2023-02-07T05:21:24.406Z,-7.20
2023-02-07T05:23:57.338Z,-7.10
2023-02-07T05:26:27.332Z,-7.00
2023-02-07T05:28:57.318Z,-7.00
2023-02-07T05:31:48.278Z,-5.30
2023-02-07T05:34:15.908Z,-7.00
2023-02-07T05:39:19.308Z,-7.00
2023-02-07T05:44:20.198Z,-7.00
2023-02-07T05:46:52.557Z,-7.00
2023-02-07T05:49:22.836Z,-7.00
2023-02-07T05:51:53.321Z,-7.30
2023-02-07T05:54:26.212Z,-7.10
2023-02-07T05:56:56.432Z,-7.10
2023-02-07T06:04:27.262Z,-7.20
2023-02-07T06:06:57.247Z,-7.10
2023-02-07T06:09:30.182Z,-7.20
2023-02-07T06:14:31.119Z,-7.30
2023-02-07T06:17:01.294Z,-7.30
2023-02-07T06:19:31.316Z,-7.40
2023-02-07T06:22:01.768Z,-7.40
2023-02-07T06:24:34.339Z,-7.40
2023-02-07T06:27:04.619Z,-7.30
2023-02-07T06:32:04.925Z,-7.50
2023-02-07T06:34:34.886Z,-7.40
2023-02-07T06:39:38.589Z,-7.40
2023-02-07T06:42:08.638Z,-7.40
2023-02-07T06:44:38.889Z,-7.50
2023-02-07T06:49:39.865Z,-7.40
2023-02-07T06:54:42.740Z,-7.50
2023-02-07T06:59:43.193Z,-7.40
2023-02-07T07:02:14.156Z,-7.40
2023-02-07T07:07:14.780Z,-7.40
2023-02-07T07:09:47.372Z,-7.40
2023-02-07T07:14:47.928Z,-7.30
2023-02-07T07:17:18.434Z,-8.00
2023-02-07T07:22:21.199Z,-7.40
2023-02-07T07:24:53.946Z,-7.30
2023-02-07T07:27:25.289Z,-7.30
2023-02-07T07:32:33.894Z,-7.40
2023-02-07T07:35:04.936Z,-7.60
2023-02-07T07:40:10.244Z,-7.30
2023-02-07T07:42:40.292Z,-7.40
2023-02-07T07:45:24.082Z,-7.10
2023-02-07T07:47:54.233Z,-7.30
2023-02-07T07:50:24.498Z,-6.30
2023-02-07T07:55:27.667Z,-7.10
2023-02-07T07:57:57.973Z,-6.90
2023-02-07T08:00:28.352Z,-6.80
2023-02-07T08:02:58.405Z,-6.90
2023-02-07T08:10:31.740Z,-6.50
2023-02-07T08:13:01.925Z,-6.10
2023-02-07T08:18:02.383Z,-6.50
2023-02-07T08:20:32.759Z,-6.20
2023-02-07T08:25:36.155Z,-5.80
2023-02-07T08:33:07.370Z,-6.10
2023-02-07T08:40:41.314Z,-5.30
2023-02-07T08:50:43.783Z,-4.10
2023-02-07T08:53:13.959Z,-4.80
2023-02-07T08:55:46.698Z,-5.00
2023-02-07T08:58:18.455Z,-5.70
2023-02-07T09:00:48.782Z,-4.80
2023-02-07T09:03:18.996Z,-4.70
2023-02-07T09:05:49.134Z,-5.20
2023-02-07T09:08:19.559Z,-4.80
2023-02-07T09:10:53.514Z,-4.60
2023-02-07T09:18:28.646Z,-4.10
2023-02-07T09:23:29.180Z,-4.30
2023-02-07T09:31:11.612Z,-3.50
2023-02-07T09:38:51.713Z,-3.60
2023-02-07T09:46:44.794Z,-3.30
2023-02-07T09:49:18.784Z,-3.20
2023-02-07T09:51:49.536Z,-3.20
2023-02-07T09:57:01.541Z,-3.10
2023-02-07T10:07:22.863Z,-3.00
2023-02-07T10:09:53.010Z,-3.00
2023-02-07T10:12:53.990Z,-2.80
2023-02-07T10:15:44.805Z,-2.70
2023-02-07T10:18:31.255Z,-2.60
2023-02-07T10:21:08.014Z,-2.50
2023-02-07T10:23:50.097Z,-2.40
2023-02-07T10:26:26.318Z,-2.00
2023-02-07T10:29:20.614Z,-1.80
2023-02-07T10:31:54.002Z,-1.40
2023-02-07T10:34:26.394Z,-1.30
2023-02-07T10:37:00.330Z,-0.60
2023-02-07T10:39:35.007Z,-0.80
2023-02-07T10:42:04.994Z,-0.60
2023-02-07T10:44:38.600Z,-0.40
2023-02-07T10:49:40.795Z,0.10
2023-02-07T10:52:30.333Z,0.30
2023-02-07T10:55:02.070Z,1.00
2023-02-07T10:57:33.775Z,1.60
2023-02-07T11:00:10.937Z,1.10
2023-02-07T11:02:52.131Z,1.40
2023-02-07T11:05:40.060Z,1.40
2023-02-07T11:08:24.763Z,1.60
2023-02-07T11:10:57.182Z,2.00
2023-02-07T11:13:29.523Z,2.10
2023-02-07T11:16:07.370Z,2.30
2023-02-07T11:18:45.040Z,2.50
2023-02-07T11:21:31.918Z,2.50
2023-02-07T11:24:04.794Z,3.00
2023-02-07T11:26:36.277Z,3.00
2023-02-07T11:29:10.889Z,3.00
2023-02-07T11:31:44.079Z,3.10
2023-02-07T11:34:41.153Z,3.70
2023-02-07T11:37:20.949Z,3.60
2023-02-07T11:39:52.571Z,3.50
2023-02-07T11:42:32.356Z,3.60
2023-02-07T11:45:08.189Z,3.60
2023-02-07T11:47:40.760Z,2.20
2023-02-07T11:50:19.368Z,3.80
2023-02-07T11:52:55.854Z,4.10
2023-02-07T11:55:28.776Z,4.40
2023-02-07T11:58:00.358Z,4.50
2023-02-07T12:00:31.663Z,4.60
2023-02-07T12:03:12.871Z,4.70
2023-02-07T12:05:46.341Z,4.70
2023-02-07T12:08:20.868Z,4.20
2023-02-07T12:10:52.284Z,4.30
2023-02-07T12:13:25.461Z,4.10
2023-02-07T12:16:00.592Z,4.20
2023-02-07T12:18:37.520Z,4.30
2023-02-07T12:21:13.745Z,4.30
2023-02-07T12:23:49.445Z,4.40
2023-02-07T12:26:25.587Z,5.10
2023-02-07T12:29:13.896Z,4.50
2023-02-07T12:31:53.656Z,4.50
2023-02-07T12:34:33.529Z,4.40
2023-02-07T12:37:08.030Z,4.40
2023-02-07T12:39:40.723Z,4.30
2023-02-07T12:42:27.160Z,4.20
2023-02-07T12:45:00.883Z,4.10
2023-02-07T12:47:42.466Z,4.00
2023-02-07T12:50:30.684Z,3.90
2023-02-07T12:53:09.197Z,3.90
2023-02-07T12:55:49.602Z,3.80
2023-02-07T12:58:31.629Z,4.10
2023-02-07T13:01:06.139Z,4.20
2023-02-07T13:03:52.056Z,4.10
2023-02-07T13:06:30.355Z,4.10
2023-02-07T13:09:07.095Z,4.10
2023-02-07T13:11:41.662Z,4.30
2023-02-07T13:14:25.059Z,4.20
2023-02-07T13:17:08.726Z,4.10
2023-02-07T13:19:47.024Z,4.40
2023-02-07T13:22:30.431Z,4.10
2023-02-07T13:25:02.639Z,4.20
2023-02-07T13:27:34.105Z,4.30
2023-02-07T13:30:04.626Z,4.60
2023-02-07T13:35:10.105Z,4.30
2023-02-07T13:37:52.364Z,4.40
2023-02-07T13:40:34.303Z,4.40
2023-02-07T13:43:10.181Z,4.00
2023-02-07T13:45:49.970Z,4.10
2023-02-07T13:48:29.388Z,4.00
2023-02-07T13:51:05.796Z,4.10
2023-02-07T13:53:49.746Z,4.00
2023-02-07T13:56:32.264Z,4.30
2023-02-07T13:59:15.271Z,4.30
2023-02-07T14:01:52.746Z,3.80
2023-02-07T14:04:24.769Z,4.00
2023-02-07T14:07:12.027Z,4.00
2023-02-07T14:09:49.638Z,3.70
2023-02-07T14:12:24.032Z,3.90
2023-02-07T14:15:02.480Z,3.90
2023-02-07T14:17:59.558Z,3.90
2023-02-07T14:20:51.891Z,3.80
2023-02-07T14:23:23.108Z,3.50
2023-02-07T14:25:55.664Z,3.50
2023-02-07T14:28:37.000Z,3.70
2023-02-07T14:31:24.470Z,3.60
2023-02-07T14:34:12.063Z,3.60
2023-02-07T14:39:31.283Z,3.40
2023-02-07T14:42:15.540Z,3.30
2023-02-07T14:44:48.326Z,3.20
2023-02-07T14:47:25.024Z,3.10
2023-02-07T14:49:59.465Z,2.80
2023-02-07T14:52:31.444Z,3.10
2023-02-07T14:55:05.544Z,2.80
2023-02-07T14:57:52.410Z,2.70
2023-02-07T15:00:31.479Z,2.60
2023-02-07T15:03:05.166Z,2.60
2023-02-07T15:05:36.938Z,2.30
2023-02-07T15:08:18.835Z,3.00
2023-02-07T15:10:55.357Z,2.00
2023-02-07T15:13:31.299Z,2.00
2023-02-07T15:16:04.359Z,2.70
2023-02-07T15:18:37.686Z,1.80
2023-02-07T15:21:08.443Z,1.70
2023-02-07T15:23:39.397Z,1.80
2023-02-07T15:26:10.912Z,1.80
2023-02-07T15:28:44.487Z,1.20
2023-02-07T15:31:16.532Z,1.40
2023-02-07T15:33:53.759Z,1.20
2023-02-07T15:36:36.279Z,1.30
2023-02-07T15:39:09.390Z,1.40
2023-02-07T15:41:39.428Z,1.20
2023-02-07T15:44:23.937Z,1.10
2023-02-07T15:46:55.854Z,0.70
2023-02-07T15:49:34.356Z,0.80
2023-02-07T15:52:09.191Z,0.80
2023-02-07T15:54:42.249Z,0.60
2023-02-07T15:57:21.602Z,0.70
2023-02-07T15:59:56.032Z,0.80
2023-02-07T16:02:28.730Z,0.60
2023-02-07T16:04:58.851Z,0.50
2023-02-07T16:07:30.049Z,0.40
2023-02-07T16:10:18.346Z,0.50
2023-02-07T16:12:53.275Z,0.30
2023-02-07T16:15:34.910Z,0.20
2023-02-07T16:18:06.710Z,0.20
2023-02-07T16:20:38.990Z,0.10
2023-02-07T16:23:12.181Z,0.30
2023-02-07T16:25:44.321Z,0.00
2023-02-07T16:28:18.338Z,-0.30
2023-02-07T16:30:50.939Z,-0.20
2023-02-07T16:40:52.252Z,-0.50
2023-02-07T17:23:53.066Z,-1.80
2023-02-07T17:26:26.267Z,-1.90
2023-02-07T17:28:57.675Z,-2.00
2023-02-07T17:39:04.176Z,-2.20
2023-02-07T17:41:34.512Z,-2.20
2023-02-07T17:44:04.446Z,-2.30
2023-02-07T17:46:36.992Z,-2.40
2023-02-07T17:59:13.232Z,-2.60
2023-02-07T18:01:45.807Z,-2.60
2023-02-07T18:04:15.776Z,-2.70
2023-02-07T18:09:20.933Z,-2.70
2023-02-07T18:11:51.052Z,-2.80
2023-02-07T18:14:21.050Z,-2.90
2023-02-07T18:16:54.437Z,-3.00
2023-02-07T18:24:24.928Z,-3.10
2023-02-07T18:29:25.142Z,-3.10
2023-02-07T18:49:32.421Z,-3.50
2023-02-07T18:59:34.134Z,-3.60
2023-02-07T19:02:07.014Z,-3.70
2023-02-07T19:07:07.510Z,-3.80
2023-02-07T19:12:09.867Z,-3.80
2023-02-07T19:17:15.768Z,-3.90
2023-02-07T19:19:45.920Z,-4.00
2023-02-07T19:22:21.560Z,-4.00
2023-02-07T19:24:56.891Z,-3.90
2023-02-07T19:27:26.823Z,-4.10
2023-02-07T19:37:30.297Z,-4.40
2023-02-07T19:42:30.521Z,-4.20
2023-02-07T20:00:07.578Z,-4.50
2023-02-07T20:02:40.127Z,-4.50
2023-02-07T20:07:40.412Z,-4.60
2023-02-07T20:10:11.521Z,-4.80
2023-02-07T20:15:13.130Z,-4.70
2023-02-07T20:17:45.698Z,-4.70
2023-02-07T20:20:17.717Z,-4.80
2023-02-07T20:32:51.513Z,-4.90
2023-02-07T20:40:23.064Z,-5.00
2023-02-07T20:47:56.120Z,-5.10
2023-02-07T20:50:26.209Z,-4.50
2023-02-07T21:33:12.616Z,-5.70
2023-02-07T21:35:42.785Z,-2.70
2023-02-07T21:48:20.715Z,-5.10
2023-02-07T22:13:26.995Z,-4.80
2023-02-07T22:31:12.055Z,-5.40
2023-02-07T22:33:51.777Z,-5.40
2023-02-07T22:36:23.744Z,-5.50
2023-02-07T22:38:54.017Z,-5.40
2023-02-07T22:41:24.546Z,-5.50
2023-02-07T22:43:54.692Z,-5.50
2023-02-07T22:46:26.135Z,-5.70
2023-02-07T22:48:59.248Z,-5.70
2023-02-07T22:51:32.390Z,-5.60
2023-02-07T22:54:05.696Z,-5.30
2023-02-07T22:56:36.163Z,-5.40
2023-02-07T22:59:06.739Z,-5.30
2023-02-07T23:01:39.049Z,-5.30
2023-02-07T23:04:15.784Z,-5.10
2023-02-07T23:06:45.914Z,-5.20
2023-02-07T23:09:16.217Z,-5.10
2023-02-07T23:11:46.202Z,-5.00
2023-02-07T23:14:16.513Z,-5.00
2023-02-07T23:16:46.724Z,-4.90
2023-02-07T23:19:20.726Z,-5.00
2023-02-07T23:21:50.686Z,-5.10
2023-02-07T23:24:20.811Z,-5.10
2023-02-07T23:26:50.950Z,-4.80
2023-02-07T23:29:21.026Z,-5.00
2023-02-07T23:31:51.015Z,-5.10
2023-02-07T23:34:23.626Z,-5.00
2023-02-07T23:36:53.559Z,-5.00
2023-02-07T23:39:23.476Z,-5.00
2023-02-07T23:41:53.459Z,-5.00
2023-02-07T23:44:23.462Z,-5.10
2023-02-07T23:46:53.418Z,-5.10
2023-02-07T23:49:25.945Z,-5.00
2023-02-07T23:51:55.917Z,-5.00
2023-02-07T23:54:25.997Z,-5.00
2023-02-07T23:56:55.944Z,-5.00
